createdAt,value
2018-11-10T00:02:24.587Z,128.47
2018-11-10T00:04:51.777Z,130.93
2018-11-10T00:07:19.013Z,126.97
2018-11-10T00:09:46.164Z,151.57
2018-11-10T00:12:13.338Z,140.97
2018-11-10T00:14:40.576Z,156.07
2018-11-10T00:17:07.864Z,160.83
2018-11-10T00:19:35.057Z,147.37
2018-11-10T00:22:02.269Z,150.03
2018-11-10T00:24:29.568Z,146.43
2018-11-10T00:26:56.701Z,156.27
2018-11-10T00:29:23.904Z,152.33
2018-11-10T00:31:51.047Z,146.90
2018-11-10T00:34:18.204Z,142.80
2018-11-10T00:36:45.409Z,145.83
2018-11-10T00:39:12.569Z,158.33
2018-11-10T00:41:39.732Z,151.00
2018-11-10T00:44:07.144Z,147.43
2018-11-10T00:46:34.293Z,136.53
2018-11-10T00:49:01.533Z,150.83
2018-11-10T00:51:28.789Z,150.40
2018-11-10T00:53:55.977Z,149.03
2018-11-10T00:56:23.149Z,143.90
2018-11-10T00:58:50.354Z,138.50
2018-11-10T01:01:17.488Z,133.87
2018-11-10T01:03:44.622Z,143.97
2018-11-10T01:06:11.912Z,149.10
2018-11-10T01:08:39.057Z,139.87
2018-11-10T01:11:06.210Z,150.47
2018-11-10T01:13:33.427Z,153.20
2018-11-10T01:16:00.552Z,148.60
2018-11-10T01:18:27.680Z,151.63
2018-11-10T01:20:54.961Z,149.17
2018-11-10T01:23:22.097Z,155.03
2018-11-10T01:25:49.237Z,150.67
2018-11-10T01:28:16.438Z,145.37
2018-11-10T01:30:43.580Z,148.73
2018-11-10T01:33:10.701Z,153.60
2018-11-10T01:35:37.880Z,135.27
2018-11-10T01:38:05.154Z,142.77
2018-11-10T01:40:32.283Z,147.07
2018-11-10T01:42:59.517Z,150.50
2018-11-10T01:45:26.672Z,149.70
2018-11-10T01:47:53.825Z,141.43
2018-11-10T01:50:21.105Z,143.20
2018-11-10T01:52:48.242Z,142.33
2018-11-10T01:55:15.444Z,144.37
2018-11-10T01:57:43.106Z,137.47
2018-11-10T02:00:13.913Z,141.17
2018-11-10T02:02:41.265Z,150.00
2018-11-10T02:05:08.554Z,132.93
2018-11-10T02:07:35.741Z,147.63
2018-11-10T02:10:03.077Z,146.73
2018-11-10T02:12:30.290Z,145.67
2018-11-10T02:14:57.408Z,138.87
2018-11-10T02:17:24.544Z,132.33
2018-11-10T02:19:51.828Z,133.27
2018-11-10T02:22:18.981Z,138.83
2018-11-10T02:24:46.162Z,138.53
2018-11-10T02:27:19.037Z,135.23
2018-11-10T02:29:46.211Z,139.13
2018-11-10T02:32:13.364Z,135.37
2018-11-10T02:34:40.573Z,139.37
2018-11-10T02:37:07.713Z,136.37
2018-11-10T02:39:34.868Z,136.90
2018-11-10T02:42:03.145Z,131.53
2018-11-10T02:44:30.288Z,134.90
2018-11-10T02:46:57.417Z,140.83
2018-11-10T02:49:24.650Z,136.83
2018-11-10T02:51:51.810Z,141.23
2018-11-10T02:54:18.981Z,147.47
2018-11-10T02:56:46.278Z,152.87
2018-11-10T02:59:13.428Z,144.50
2018-11-10T03:01:40.565Z,145.13
2018-11-10T03:04:07.760Z,134.90
2018-11-10T03:06:34.929Z,135.63
2018-11-10T03:09:02.078Z,133.83
2018-11-10T03:11:29.285Z,118.10
2018-11-10T03:13:56.416Z,121.03
2018-11-10T03:16:23.636Z,120.27
2018-11-10T03:18:50.813Z,118.70
2018-11-10T03:21:17.952Z,195.27
2018-11-10T03:23:45.097Z,184.93
2018-11-10T03:26:12.289Z,168.87
2018-11-10T03:28:39.441Z,161.00
2018-11-10T03:31:06.754Z,150.80
2018-11-10T03:33:33.961Z,176.23
2018-11-10T03:36:01.101Z,143.73
2018-11-10T03:38:28.233Z,134.07
2018-11-10T03:40:55.447Z,166.33
2018-11-10T03:43:22.621Z,143.03
2018-11-10T03:45:49.750Z,138.93
2018-11-10T03:48:16.962Z,141.93
2018-11-10T03:50:44.113Z,131.83
2018-11-10T03:53:11.253Z,175.60
2018-11-10T03:55:38.446Z,171.20
2018-11-10T03:58:05.656Z,132.30
2018-11-10T04:00:32.792Z,179.30
2018-11-10T04:03:00.077Z,193.80
2018-11-10T04:05:27.217Z,193.00
2018-11-10T04:07:54.364Z,192.10
2018-11-10T04:10:21.550Z,183.40
2018-11-10T04:12:48.689Z,175.87
2018-11-10T04:15:15.820Z,197.37
2018-11-10T04:17:43.002Z,215.80
2018-11-10T04:20:10.594Z,208.57
2018-11-10T04:22:38.074Z,257.90
2018-11-10T04:25:08.641Z,221.50
2018-11-10T04:27:35.773Z,216.43
2018-11-10T04:30:04.002Z,265.27
2018-11-10T04:32:31.357Z,198.00
2018-11-10T04:34:58.501Z,228.60
2018-11-10T04:37:26.164Z,239.17
2018-11-10T04:39:53.445Z,281.80
2018-11-10T04:42:20.687Z,217.20
2018-11-10T04:44:47.850Z,207.60
2018-11-10T04:47:15.296Z,261.33
2018-11-10T04:49:42.612Z,282.23
2018-11-10T04:52:10.053Z,280.27
2018-11-10T04:54:37.433Z,242.13
2018-11-10T04:57:05.072Z,238.63
2018-11-10T04:59:33.314Z,206.37
2018-11-10T05:02:00.601Z,244.10
2018-11-10T05:04:30.276Z,222.50
2018-11-10T05:06:57.473Z,249.43
2018-11-10T05:09:24.704Z,208.07
2018-11-10T05:11:51.952Z,165.83
2018-11-10T05:14:19.146Z,230.97
2018-11-10T05:16:46.425Z,226.97
2018-11-10T05:19:13.697Z,187.10
2018-11-10T05:21:40.925Z,190.07
2018-11-10T05:24:08.193Z,203.17
2018-11-10T05:26:35.412Z,216.43
2018-11-10T05:29:03.676Z,221.20
2018-11-10T05:31:30.903Z,192.00
2018-11-10T05:33:58.134Z,227.00
2018-11-10T05:36:25.347Z,221.80
2018-11-10T05:38:52.690Z,215.80
2018-11-10T05:41:19.876Z,224.53
2018-11-10T05:43:47.125Z,185.67
2018-11-10T05:46:14.325Z,201.67
2018-11-10T05:48:41.579Z,159.63
2018-11-10T05:51:08.777Z,191.20
2018-11-10T05:53:36.023Z,196.27
2018-11-10T05:56:03.272Z,204.80
2018-11-10T05:58:30.473Z,231.07
2018-11-10T06:00:57.865Z,186.00
2018-11-10T06:03:25.054Z,177.17
2018-11-10T06:05:52.268Z,177.20
2018-11-10T06:08:19.640Z,203.03
2018-11-10T06:10:46.873Z,149.73
2018-11-10T06:13:14.157Z,194.43
2018-11-10T06:15:41.395Z,158.57
2018-11-10T06:18:08.729Z,184.13
2018-11-10T06:20:35.904Z,144.20
2018-11-10T06:23:03.153Z,158.47
2018-11-10T06:25:30.350Z,153.20
2018-11-10T06:27:57.649Z,174.30
2018-11-10T06:30:24.996Z,171.27
2018-11-10T06:32:52.604Z,162.50
2018-11-10T06:35:22.906Z,171.13
2018-11-10T06:37:51.435Z,155.70
2018-11-10T06:40:19.591Z,192.73
2018-11-10T06:42:56.704Z,182.57
2018-11-10T06:45:25.292Z,163.90
2018-11-10T06:47:53.488Z,188.97
2018-11-10T06:50:21.051Z,173.63
2018-11-10T06:52:48.940Z,188.20
2018-11-10T06:55:17.097Z,165.70
2018-11-10T06:57:44.824Z,150.13
2018-11-10T07:00:14.374Z,173.30
2018-11-10T07:02:42.297Z,143.80
2018-11-10T07:05:10.895Z,160.43
2018-11-10T07:07:39.215Z,159.83
2018-11-10T07:10:07.200Z,148.10
2018-11-10T07:12:35.070Z,168.80
2018-11-10T07:15:02.798Z,173.53
2018-11-10T07:17:30.414Z,151.50
2018-11-10T07:19:58.136Z,179.93
2018-11-10T07:22:25.987Z,147.93
2018-11-10T07:24:53.953Z,151.03
2018-11-10T07:27:21.850Z,167.67
2018-11-10T07:29:49.458Z,138.87
2018-11-10T07:32:16.710Z,162.33
2018-11-10T07:34:43.968Z,157.00
2018-11-10T07:37:11.165Z,157.13
2018-11-10T07:39:38.394Z,140.70
2018-11-10T07:42:05.728Z,170.83
2018-11-10T07:44:32.933Z,155.23
2018-11-10T07:47:00.149Z,152.07
2018-11-10T07:49:27.496Z,158.30
2018-11-10T07:51:54.729Z,149.77
2018-11-10T07:54:21.934Z,153.17
2018-11-10T07:56:49.201Z,134.37
2018-11-10T07:59:16.415Z,135.20
2018-11-10T08:01:44.370Z,159.60
2018-11-10T08:04:12.745Z,128.57
2018-11-10T08:06:40.301Z,144.93
2018-11-10T08:09:08.436Z,131.53
2018-11-10T08:11:35.679Z,151.03
2018-11-10T08:14:02.816Z,164.67
2018-11-10T08:16:30.393Z,147.83
2018-11-10T08:18:57.613Z,153.93
2018-11-10T08:21:24.785Z,140.10
2018-11-10T08:23:51.941Z,145.77
2018-11-10T08:26:19.149Z,133.57
2018-11-10T08:28:46.372Z,126.87
2018-11-10T08:31:14.001Z,135.50
2018-11-10T08:33:41.180Z,127.30
2018-11-10T08:36:08.366Z,121.80
2018-11-10T08:38:35.489Z,112.90
2018-11-10T08:41:02.681Z,108.93
2018-11-10T08:43:29.839Z,110.00
2018-11-10T08:45:57.015Z,116.57
2018-11-10T08:48:24.255Z,112.47
2018-11-10T08:50:51.461Z,106.67
2018-11-10T08:53:18.621Z,101.10
2018-11-10T08:55:45.861Z,98.20
2018-11-10T08:58:13.057Z,113.03
2018-11-10T09:00:40.337Z,102.67
2018-11-10T09:03:07.626Z,98.23
2018-11-10T09:05:34.821Z,102.83
2018-11-10T09:08:02.003Z,110.10
2018-11-10T09:10:29.350Z,96.83
2018-11-10T09:12:56.637Z,89.47
2018-11-10T09:15:23.817Z,97.30
2018-11-10T09:17:51.192Z,98.43
2018-11-10T09:20:18.362Z,99.90
2018-11-10T09:22:45.824Z,96.87
2018-11-10T09:25:15.371Z,93.27
2018-11-10T09:27:42.610Z,91.03
2018-11-10T09:30:11.177Z,89.90
2018-11-10T09:32:38.581Z,95.17
2018-11-10T09:35:06.278Z,96.17
2018-11-10T09:37:33.441Z,83.10
2018-11-10T09:40:00.755Z,84.83
2018-11-10T09:42:28.312Z,82.83
2018-11-10T09:44:55.328Z,76.83
2018-11-10T09:47:22.637Z,72.53
2018-11-10T09:49:49.890Z,71.40
2018-11-10T09:52:17.040Z,77.97
2018-11-10T09:54:44.348Z,70.97
2018-11-10T09:57:11.535Z,78.17
2018-11-10T09:59:39.296Z,72.90
2018-11-10T10:02:06.858Z,73.90
2018-11-10T10:04:33.755Z,67.87
2018-11-10T10:07:00.951Z,66.83
2018-11-10T10:09:28.239Z,62.63
2018-11-10T10:11:55.453Z,73.87
2018-11-10T10:14:23.030Z,67.77
2018-11-10T10:16:55.083Z,69.57
2018-11-10T10:19:22.605Z,71.83
2018-11-10T10:21:49.942Z,72.47
2018-11-10T10:24:17.272Z,64.27
2018-11-10T10:26:44.518Z,68.37
2018-11-10T10:29:11.753Z,80.77
2018-11-10T10:31:39.274Z,69.80
2018-11-10T10:34:06.995Z,68.80
2018-11-10T10:36:34.230Z,69.30
2018-11-10T10:39:05.974Z,70.30
2018-11-10T10:41:35.419Z,68.80
2018-11-10T10:44:04.949Z,64.10
2018-11-10T10:46:32.393Z,60.17
2018-11-10T10:49:01.413Z,62.33
2018-11-10T10:51:28.772Z,53.93
2018-11-10T10:53:56.013Z,57.57
2018-11-10T10:56:23.178Z,56.07
2018-11-10T10:58:50.551Z,57.17
2018-11-10T11:01:23.441Z,53.87
2018-11-10T11:03:55.292Z,53.47
2018-11-10T11:06:22.976Z,54.40
2018-11-10T11:08:57.074Z,47.30
2018-11-10T11:11:24.361Z,49.47
2018-11-10T11:13:51.586Z,46.95
2018-11-10T11:16:18.914Z,46.37
2018-11-10T11:18:46.072Z,48.43
2018-11-10T11:21:13.241Z,45.77
2018-11-10T11:23:40.498Z,42.27
2018-11-10T11:26:07.664Z,46.40
2018-11-10T11:28:34.810Z,45.17
2018-11-10T11:31:02.111Z,46.87
2018-11-10T11:33:29.356Z,44.73
2018-11-10T11:35:58.564Z,43.67
2018-11-10T11:38:25.821Z,47.17
2018-11-10T11:40:53.096Z,44.90
2018-11-10T11:43:20.301Z,46.93
2018-11-10T11:45:47.672Z,48.10
2018-11-10T11:48:14.885Z,46.37
2018-11-10T11:50:42.105Z,45.07
2018-11-10T11:53:09.344Z,48.23
2018-11-10T11:55:36.545Z,46.70
2018-11-10T11:58:03.915Z,46.47
2018-11-10T12:00:31.093Z,44.87
2018-11-10T12:02:58.315Z,43.47
2018-11-10T12:05:25.530Z,45.23
2018-11-10T12:07:52.801Z,44.60
2018-11-10T12:10:19.956Z,43.47
2018-11-10T12:12:47.072Z,46.03
2018-11-10T12:15:15.505Z,45.83
2018-11-10T12:17:42.622Z,44.70
2018-11-10T12:20:11.424Z,42.47
2018-11-10T12:22:38.682Z,43.47
2018-11-10T12:25:06.023Z,48.13
2018-11-10T12:27:33.195Z,44.70
2018-11-10T12:30:00.445Z,45.97
2018-11-10T12:32:27.753Z,44.03
2018-11-10T12:34:55.104Z,46.37
2018-11-10T12:37:22.358Z,47.00
2018-11-10T12:39:49.730Z,42.37
2018-11-10T12:42:16.912Z,46.90
2018-11-10T12:44:44.156Z,45.10
2018-11-10T12:47:11.358Z,43.30
2018-11-10T12:49:38.524Z,42.83
2018-11-10T12:52:05.905Z,42.97
2018-11-10T12:54:33.182Z,43.53
2018-11-10T12:57:00.350Z,44.07
2018-11-10T12:59:27.704Z,41.43
2018-11-10T13:01:54.891Z,44.43
2018-11-10T13:04:22.037Z,44.67
2018-11-10T13:06:49.256Z,45.53
2018-11-10T13:09:16.420Z,42.50
2018-11-10T13:11:43.742Z,42.33
2018-11-10T13:14:11.117Z,41.27
2018-11-10T13:16:38.421Z,41.70
2018-11-10T13:19:06.204Z,41.53
2018-11-10T13:21:33.440Z,38.23
2018-11-10T13:24:00.590Z,39.30
2018-11-10T13:26:27.729Z,37.17
2018-11-10T13:28:55.123Z,39.63
2018-11-10T13:31:22.500Z,42.40
2018-11-10T13:33:49.609Z,36.33
2018-11-10T13:36:16.801Z,36.53
2018-11-10T13:38:43.953Z,39.13
2018-11-10T13:41:11.119Z,39.07
2018-11-10T13:43:38.325Z,36.03
2018-11-10T13:46:05.481Z,38.93
2018-11-10T13:48:32.866Z,39.37
2018-11-10T13:51:00.363Z,39.03
2018-11-10T13:53:27.374Z,43.27
2018-11-10T13:55:54.567Z,39.33
2018-11-10T13:58:21.853Z,40.67
2018-11-10T14:00:49.093Z,37.07
2018-11-10T14:03:16.366Z,42.13
2018-11-10T14:05:43.658Z,37.37
2018-11-10T14:08:10.746Z,39.57
2018-11-10T14:10:37.882Z,41.60
2018-11-10T14:13:05.553Z,40.87
2018-11-10T14:15:33.589Z,36.93
2018-11-10T14:18:00.737Z,36.77
2018-11-10T14:20:27.931Z,39.17
2018-11-10T14:22:55.089Z,36.60
2018-11-10T14:25:22.253Z,39.97
2018-11-10T14:27:49.494Z,39.37
2018-11-10T14:30:17.397Z,38.00
2018-11-10T14:32:44.782Z,40.50
2018-11-10T14:35:12.361Z,37.90
2018-11-10T14:37:39.540Z,40.23
2018-11-10T14:40:08.955Z,37.90
2018-11-10T14:42:36.316Z,40.33
2018-11-10T14:45:03.680Z,41.40
2018-11-10T14:47:30.876Z,40.93
2018-11-10T14:49:58.064Z,41.07
2018-11-10T14:52:25.328Z,40.60
2018-11-10T14:54:52.477Z,43.20
2018-11-10T14:57:19.677Z,39.83
2018-11-10T14:59:46.845Z,39.67
2018-11-10T15:02:14.254Z,39.87
2018-11-10T15:04:41.522Z,42.50
2018-11-10T15:07:08.736Z,44.03
2018-11-10T15:09:35.898Z,44.83
2018-11-10T15:12:03.212Z,42.17
2018-11-10T15:14:30.490Z,44.17
2018-11-10T15:16:57.761Z,45.97
2018-11-10T15:19:24.978Z,42.57
2018-11-10T15:21:52.127Z,44.10
2018-11-10T15:24:19.329Z,46.83
2018-11-10T15:26:46.641Z,43.50
2018-11-10T15:29:13.772Z,46.73
2018-11-10T15:31:40.917Z,47.17
2018-11-10T15:34:08.200Z,44.20
2018-11-10T15:36:35.354Z,44.73
2018-11-10T15:39:02.575Z,42.90
2018-11-10T15:41:29.803Z,36.53
2018-11-10T15:43:56.991Z,41.13
2018-11-10T15:46:24.156Z,43.87
2018-11-10T15:48:51.435Z,46.33
2018-11-10T15:51:18.605Z,43.30
2018-11-10T15:53:45.764Z,48.50
2018-11-10T15:56:12.979Z,49.50
2018-11-10T15:58:40.137Z,50.20
2018-11-10T16:01:07.288Z,58.23
2018-11-10T16:03:34.603Z,51.63
2018-11-10T16:06:01.757Z,52.07
2018-11-10T16:08:28.929Z,52.40
2018-11-10T16:10:56.142Z,50.67
2018-11-10T16:13:23.292Z,52.73
2018-11-10T16:15:50.499Z,50.80
2018-11-10T16:18:17.710Z,51.87
2018-11-10T16:20:44.896Z,52.87
2018-11-10T16:23:12.071Z,50.10
2018-11-10T16:25:39.252Z,54.73
2018-11-10T16:28:06.428Z,50.40
2018-11-10T16:30:33.614Z,49.93
2018-11-10T16:33:00.909Z,51.93
2018-11-10T16:35:28.077Z,53.67
2018-11-10T16:37:55.248Z,52.57
2018-11-10T16:40:22.462Z,53.10
2018-11-10T16:42:49.950Z,54.33
2018-11-10T16:45:17.904Z,55.50
2018-11-10T16:47:45.156Z,51.57
2018-11-10T16:50:12.402Z,54.00
2018-11-10T16:52:40.246Z,59.53
2018-11-10T16:55:07.889Z,59.43
2018-11-10T16:57:34.995Z,60.77
2018-11-10T17:00:03.733Z,62.03
2018-11-10T17:02:30.934Z,63.60
2018-11-10T17:04:58.116Z,58.70
2018-11-10T17:07:25.293Z,55.47
2018-11-10T17:09:52.499Z,54.47
2018-11-10T17:12:19.669Z,57.27
2018-11-10T17:14:46.832Z,56.00
2018-11-10T17:17:14.180Z,54.00
2018-11-10T17:19:41.339Z,55.73
2018-11-10T17:22:08.517Z,55.23
2018-11-10T17:24:35.827Z,57.57
2018-11-10T17:27:03.059Z,64.57
2018-11-10T17:29:30.462Z,60.83
2018-11-10T17:31:57.764Z,62.77
2018-11-10T17:34:24.906Z,63.03
2018-11-10T17:36:52.066Z,65.07
2018-11-10T17:39:19.523Z,66.00
2018-11-10T17:41:46.624Z,70.67
2018-11-10T17:44:13.770Z,95.57
2018-11-10T17:46:40.983Z,80.43
2018-11-10T17:49:08.137Z,66.23
2018-11-10T17:51:35.285Z,69.47
2018-11-10T17:54:02.570Z,65.00
2018-11-10T17:56:29.765Z,64.87
2018-11-10T17:58:56.979Z,65.17
2018-11-10T18:01:24.350Z,64.57
2018-11-10T18:03:51.554Z,69.53
2018-11-10T18:06:18.766Z,68.33
2018-11-10T18:08:45.977Z,60.43
2018-11-10T18:11:13.154Z,69.47
2018-11-10T18:13:40.332Z,64.73
2018-11-10T18:16:07.554Z,64.37
2018-11-10T18:18:34.825Z,66.97
2018-11-10T18:21:01.997Z,71.57
2018-11-10T18:23:29.226Z,80.47
2018-11-10T18:25:56.431Z,69.63
2018-11-10T18:28:23.609Z,66.37
2018-11-10T18:30:50.840Z,66.13
2018-11-10T18:33:18.998Z,65.97
2018-11-10T18:35:46.181Z,70.10
2018-11-10T18:38:13.379Z,70.80
2018-11-10T18:40:40.556Z,70.97
2018-11-10T18:43:07.726Z,73.13
2018-11-10T18:45:35.033Z,70.33
2018-11-10T18:48:02.185Z,64.10
2018-11-10T18:50:29.366Z,68.30
2018-11-10T18:52:56.662Z,68.77
2018-11-10T18:55:23.861Z,68.07
2018-11-10T18:57:52.253Z,65.70
2018-11-10T19:00:19.438Z,68.70
2018-11-10T19:02:46.752Z,71.33
2018-11-10T19:05:15.229Z,66.33
2018-11-10T19:07:42.456Z,66.27
2018-11-10T19:10:11.489Z,65.30
2018-11-10T19:12:38.840Z,65.53
2018-11-10T19:15:08.680Z,65.10
2018-11-10T19:17:35.813Z,66.13
2018-11-10T19:20:03.170Z,64.87
2018-11-10T19:22:30.520Z,63.43
2018-11-10T19:24:57.902Z,60.50
2018-11-10T19:27:25.114Z,67.67
2018-11-10T19:29:52.376Z,68.20
2018-11-10T19:32:19.971Z,65.57
2018-11-10T19:34:47.122Z,66.83
2018-11-10T19:37:14.372Z,65.07
2018-11-10T19:39:41.947Z,63.67
2018-11-10T19:42:09.097Z,71.27
2018-11-10T19:44:36.477Z,83.40
2018-11-10T19:47:04.571Z,102.53
2018-11-10T19:49:31.822Z,91.57
2018-11-10T19:51:59.161Z,89.73
2018-11-10T19:54:26.240Z,82.27
2018-11-10T19:59:15.342Z,79.53
2018-11-10T20:01:42.525Z,73.40
2018-11-10T20:04:09.856Z,80.60
2018-11-10T20:06:37.146Z,78.43
2018-11-10T20:09:07.254Z,76.07
2018-11-10T20:11:37.089Z,77.73
2018-11-10T20:14:04.558Z,88.33
2018-11-10T20:16:31.766Z,84.97
2018-11-10T20:18:59.259Z,77.17
2018-11-10T20:21:26.454Z,74.67
2018-11-10T20:23:53.773Z,82.07
2018-11-10T20:26:21.069Z,78.40
2018-11-10T20:28:48.253Z,80.40
2018-11-10T20:31:15.487Z,79.93
2018-11-10T20:33:42.777Z,77.70
2018-11-10T20:36:13.233Z,82.23
2018-11-10T20:38:40.750Z,77.33
2018-11-10T20:41:10.125Z,77.17
2018-11-10T20:43:37.452Z,81.10
2018-11-10T20:46:05.214Z,86.37
2018-11-10T20:48:32.457Z,89.20
2018-11-10T20:50:59.693Z,86.37
2018-11-10T20:53:26.838Z,80.43
2018-11-10T20:55:54.069Z,82.27
2018-11-10T20:58:21.261Z,92.40
2018-11-10T21:00:48.465Z,87.07
2018-11-10T21:03:15.664Z,83.03
2018-11-10T21:05:42.858Z,81.93
2018-11-10T21:08:10.040Z,89.73
2018-11-10T21:10:37.925Z,86.77
2018-11-10T21:13:05.241Z,84.33
2018-11-10T21:15:32.583Z,89.07
2018-11-10T21:18:00.260Z,90.07
2018-11-10T21:20:28.561Z,93.43
2018-11-10T21:22:55.733Z,87.87
2018-11-10T21:25:23.328Z,100.67
2018-11-10T21:27:50.516Z,93.77
2018-11-10T21:30:19.053Z,101.40
2018-11-10T21:32:47.242Z,95.07
2018-11-10T21:35:14.659Z,91.77
2018-11-10T21:37:41.764Z,100.53
2018-11-10T21:40:12.616Z,98.67
2018-11-10T21:42:40.314Z,96.37
2018-11-10T21:45:08.399Z,100.60
2018-11-10T21:47:36.119Z,95.03
2018-11-10T21:50:03.900Z,97.63
2018-11-10T21:52:31.132Z,89.13
2018-11-10T21:54:58.962Z,95.43
2018-11-10T21:57:26.346Z,87.30
2018-11-10T21:59:53.604Z,85.57
2018-11-10T22:02:21.180Z,90.03
2018-11-10T22:04:48.340Z,90.90
2018-11-10T22:07:15.546Z,91.67
2018-11-10T22:09:42.883Z,99.30
2018-11-10T22:12:10.166Z,95.23
2018-11-10T22:14:37.325Z,95.67
2018-11-10T22:17:04.717Z,93.23
2018-11-10T22:19:43.274Z,93.03
2018-11-10T22:22:10.614Z,96.47
2018-11-10T22:24:37.935Z,89.63
2018-11-10T22:27:05.637Z,97.43
2018-11-10T22:29:32.861Z,91.00
2018-11-10T22:32:00.094Z,94.40
2018-11-10T22:34:27.440Z,90.40
2018-11-10T22:36:55.542Z,84.53
2018-11-10T22:39:24.018Z,86.43
2018-11-10T22:41:52.254Z,84.00
2018-11-10T22:44:20.281Z,90.87
2018-11-10T22:46:48.357Z,98.27
2018-11-10T22:49:16.306Z,95.00
2018-11-10T22:51:44.059Z,94.07
2018-11-10T22:54:11.762Z,98.60
2018-11-10T22:56:39.366Z,105.33
2018-11-10T22:59:07.210Z,105.13
2018-11-10T23:01:35.234Z,105.40
2018-11-10T23:04:02.861Z,102.27
2018-11-10T23:06:30.902Z,92.80
2018-11-10T23:08:58.534Z,86.63
2018-11-10T23:11:26.483Z,92.37
2018-11-10T23:13:54.736Z,93.10
2018-11-10T23:16:22.678Z,90.27
2018-11-10T23:18:50.603Z,91.23
2018-11-10T23:21:18.402Z,90.97
2018-11-10T23:23:46.214Z,88.07
2018-11-10T23:26:14.451Z,92.77
2018-11-10T23:28:42.574Z,89.07
2018-11-10T23:31:10.649Z,80.57
2018-11-10T23:33:38.495Z,75.87
2018-11-10T23:36:06.299Z,75.40
2018-11-10T23:38:33.990Z,86.17
2018-11-10T23:41:02.088Z,86.73
2018-11-10T23:43:29.749Z,86.63
2018-11-10T23:45:57.288Z,97.50
2018-11-10T23:48:24.994Z,94.57
2018-11-10T23:50:52.739Z,104.93
2018-11-10T23:53:20.458Z,97.97
2018-11-10T23:55:48.136Z,100.87
2018-11-10T23:58:15.777Z,110.40
